»·PEaware :: N2822D CYXH-KALW

N2822D :: CYXH-KALW

FLIGHT INFORMATION

Flight Status: Arrived
Operator: Privately registered:
United States
More flights under this callsign
Pilot: Wayne R. (17783)
Aircraft: CESSNA 310
(C310)
More flights by this aircraft type
Origin: CYXH Medicine Hat
Canada
Destination: KALW Walla Walla Regl
United States
More flights between these airports :: More routes between these airports
Route:
File this flight plan on PilotEdge
Remarks:
Altitude:
(Current/Filed)
1,200ft
Speed:
(Current/Filed)
125kts
Departed: 26-Jan-20 06:21 PM
Arrived: 26-Jan-20 08:52 PM
Distance/Time
Traveled:
384nm/2:31
Distance/Time
To Go:
Arrived

Flight Plot

Page will automatically refresh every two minutes.

Flight plan parsing failed; only flown route is shown


Map Options




Map Legend


Flown Route
Filed Route
Departure Airport
Arrival Airport
Navaid (VOR, NDB)
Fix

Horizontal Profiles

Position Reports

Time Latitude Longitude Heading Altitude Ground
Speed
26-Jan-20 18:16 50.017183 -110.722436 113 2355ft 0kts
26-Jan-20 18:17 50.017183 -110.722436 113 2355ft 0kts
26-Jan-20 18:18 50.017183 -110.722436 113 2355ft 0kts
26-Jan-20 18:19 50.017183 -110.722436 113 2355ft 0kts
26-Jan-20 18:20 50.012136 -110.699320 127 2698ft 95kts
26-Jan-20 18:21 49.987339 -110.703279 232 3629ft 125kts
26-Jan-20 18:22 49.961726 -110.751318 221 3906ft 177kts
26-Jan-20 18:23 49.930216 -110.815180 235 4049ft 191kts
26-Jan-20 18:24 49.900944 -110.881857 235 4451ft 182kts
26-Jan-20 18:25 49.873292 -110.945352 233 5095ft 167kts
26-Jan-20 18:26 49.847518 -111.002719 233 5849ft 160kts
26-Jan-20 18:27 49.822907 -111.059384 233 6527ft 157kts
26-Jan-20 18:28 49.799239 -111.115514 233 7144ft 156kts
26-Jan-20 18:29 49.775573 -111.172327 233 7655ft 156kts
26-Jan-20 18:30 49.752202 -111.228365 233 8155ft 154kts
26-Jan-20 18:31 49.728568 -111.284590 233 8523ft 156kts
26-Jan-20 18:32 49.704742 -111.340646 233 8877ft 155kts
26-Jan-20 18:33 49.680984 -111.395898 233 9213ft 154kts
26-Jan-20 18:34 49.657415 -111.450030 233 9491ft 148kts
26-Jan-20 18:35 49.634671 -111.501887 233 9652ft 145kts
26-Jan-20 18:36 49.612052 -111.553100 233 9788ft 144kts
26-Jan-20 18:37 49.588996 -111.603635 230 9910ft 143kts
26-Jan-20 18:38 49.563881 -111.652487 230 10120ft 147kts
26-Jan-20 18:39 49.538055 -111.701168 230 10364ft 146kts
26-Jan-20 18:40 49.512110 -111.748924 230 10371ft 144kts
26-Jan-20 18:41 49.486034 -111.796285 230 10339ft 146kts
26-Jan-20 18:42 49.461057 -111.841143 230 10347ft 148kts
26-Jan-20 18:43 49.434143 -111.889152 230 10371ft 148kts
26-Jan-20 18:44 49.407200 -111.937415 230 10393ft 148kts
26-Jan-20 18:45 49.380387 -111.985669 230 10408ft 148kts
26-Jan-20 18:46 49.353729 -112.033900 230 10420ft 148kts
26-Jan-20 18:47 49.327118 -112.082339 230 10425ft 148kts
26-Jan-20 18:48 49.301775 -112.132235 232 10431ft 148kts
26-Jan-20 18:49 49.276691 -112.181782 232 10396ft 146kts
26-Jan-20 18:50 49.251759 -112.230956 232 10359ft 146kts
26-Jan-20 18:51 49.226844 -112.280046 232 10325ft 146kts
26-Jan-20 18:52 49.201813 -112.329451 232 10292ft 146kts
26-Jan-20 18:53 49.176773 -112.379199 232 10283ft 150kts
26-Jan-20 18:54 49.151272 -112.430002 232 10338ft 151kts
26-Jan-20 18:55 49.125671 -112.481160 233 10395ft 151kts
26-Jan-20 18:56 49.100184 -112.531888 233 10418ft 148kts
26-Jan-20 18:57 49.074823 -112.581489 233 10393ft 148kts
26-Jan-20 18:59 49.049108 -112.630747 233 10365ft 148kts
26-Jan-20 19:00 49.023018 -112.679804 232 10350ft 149kts
26-Jan-20 19:01 48.996570 -112.728658 232 10344ft 150kts
26-Jan-20 19:02 48.969158 -112.777029 230 10335ft 151kts
26-Jan-20 19:03 48.940959 -112.824268 230 10332ft 151kts
26-Jan-20 19:04 48.912589 -112.871696 230 10338ft 150kts
26-Jan-20 19:05 48.884441 -112.918740 230 10350ft 150kts
26-Jan-20 19:06 48.856460 -112.965603 230 10367ft 149kts
26-Jan-20 19:07 48.828748 -113.012253 230 10381ft 148kts
26-Jan-20 19:08 48.801308 -113.058842 230 10391ft 147kts
26-Jan-20 19:09 48.774038 -113.105337 230 10390ft 147kts
26-Jan-20 19:10 48.746817 -113.151789 231 10379ft 147kts
26-Jan-20 19:11 48.720722 -113.199787 233 10385ft 147kts
26-Jan-20 19:12 48.694670 -113.247919 233 10392ft 147kts
26-Jan-20 19:13 48.671318 -113.298584 242 10401ft 147kts
26-Jan-20 19:14 48.651353 -113.352295 241 10381ft 146kts
26-Jan-20 19:15 48.630436 -113.404461 236 10365ft 146kts
26-Jan-20 19:16 48.606517 -113.454751 235 10381ft 147kts
26-Jan-20 19:17 48.580579 -113.502950 234 10401ft 147kts
26-Jan-20 19:18 48.554549 -113.550738 234 10405ft 147kts
26-Jan-20 19:19 48.528622 -113.598365 234 10366ft 146kts
26-Jan-20 19:19 48.507274 -113.637803 234 10308ft 145kts
26-Jan-20 19:21 48.476518 -113.694758 233 10414ft 152kts
26-Jan-20 19:22 48.449633 -113.744208 233 10548ft 153kts
26-Jan-20 19:22 48.427073 -113.785497 233 10653ft 152kts
26-Jan-20 19:23 48.400013 -113.834707 233 10773ft 152kts
26-Jan-20 19:25 48.368348 -113.891842 234 10897ft 152kts
26-Jan-20 19:25 48.345741 -113.932371 234 10984ft 152kts
26-Jan-20 19:26 48.318329 -113.981222 234 11093ft 152kts
26-Jan-20 19:27 48.290877 -114.029864 234 11201ft 152kts
26-Jan-20 19:28 48.263441 -114.078153 234 11298ft 152kts
26-Jan-20 19:29 48.235724 -114.126785 234 11391ft 152kts
26-Jan-20 19:30 48.208423 -114.175440 236 11479ft 152kts
26-Jan-20 19:31 48.182405 -114.224732 236 11559ft 152kts
26-Jan-20 19:32 48.155899 -114.274736 236 11638ft 152kts
26-Jan-20 19:33 48.129725 -114.324289 236 11711ft 152kts
26-Jan-20 19:34 48.103462 -114.373899 236 11780ft 152kts
26-Jan-20 19:35 48.077518 -114.423919 236 11847ft 152kts
26-Jan-20 19:36 48.051067 -114.473294 236 11905ft 152kts
26-Jan-20 19:37 48.024577 -114.521997 236 11958ft 152kts
26-Jan-20 19:38 47.997714 -114.571234 236 12008ft 152kts
26-Jan-20 19:39 47.971515 -114.619230 236 12055ft 152kts
26-Jan-20 19:40 47.946097 -114.665775 236 12106ft 152kts
26-Jan-20 19:41 47.921364 -114.715024 240 12104ft 146kts
26-Jan-20 19:42 47.899896 -114.760981 241 11792ft 125kts
26-Jan-20 19:43 47.881239 -114.803941 241 11238ft 122kts
26-Jan-20 19:44 47.862778 -114.845922 240 10673ft 121kts
26-Jan-20 19:45 47.843604 -114.889317 239 10246ft 140kts
26-Jan-20 19:46 47.821206 -114.940893 239 10345ft 152kts
26-Jan-20 19:47 47.798088 -114.992595 238 10445ft 143kts
26-Jan-20 19:48 47.776061 -115.042007 238 10409ft 146kts
26-Jan-20 19:49 47.751014 -115.091271 234 10455ft 150kts
26-Jan-20 19:50 47.725841 -115.140830 234 10501ft 150kts
26-Jan-20 19:51 47.700777 -115.190937 234 10540ft 151kts
26-Jan-20 19:52 47.675706 -115.241329 234 10588ft 152kts
26-Jan-20 19:53 47.650195 -115.290900 232 10610ft 150kts
26-Jan-20 19:54 47.623935 -115.339009 232 10603ft 149kts
26-Jan-20 19:55 47.609469 -115.365471 232 10599ft 149kts
26-Jan-20 19:56 47.536496 -115.498161 233 10583ft 150kts
26-Jan-20 19:57 47.462482 -115.627810 233 10524ft 151kts
26-Jan-20 19:58 47.434803 -115.675209 232 10522ft 152kts
26-Jan-20 19:59 47.407504 -115.721575 232 10451ft 135kts
26-Jan-20 20:00 47.385695 -115.757765 232 9788ft 119kts
26-Jan-20 20:01 47.363495 -115.794211 232 8958ft 120kts
26-Jan-20 20:02 47.341327 -115.831269 232 8161ft 121kts
26-Jan-20 20:03 47.318259 -115.870229 233 7528ft 147kts
26-Jan-20 20:04 47.288591 -115.920844 232 7755ft 170kts
26-Jan-20 20:05 47.257450 -115.973856 233 8114ft 170kts
26-Jan-20 20:06 47.232504 -116.032557 241 8457ft 167kts
26-Jan-20 20:07 47.209653 -116.086836 241 8495ft 157kts
26-Jan-20 20:08 47.185958 -116.143262 241 8529ft 165kts
26-Jan-20 20:09 47.163402 -116.202651 245 8535ft 167kts
26-Jan-20 20:10 47.130597 -116.295600 244 8567ft 166kts
26-Jan-20 20:11 47.108089 -116.354887 244 8584ft 165kts
26-Jan-20 20:12 47.086282 -116.413799 244 8595ft 163kts
26-Jan-20 20:13 47.065024 -116.472461 244 8595ft 162kts
26-Jan-20 20:14 47.041773 -116.529003 237 8587ft 162kts
26-Jan-20 20:15 47.014966 -116.582939 235 8554ft 167kts
26-Jan-20 20:16 46.984522 -116.635611 234 8554ft 170kts
26-Jan-20 20:17 46.953696 -116.688642 233 8569ft 171kts
26-Jan-20 20:18 46.922730 -116.741690 232 8588ft 172kts
26-Jan-20 20:19 46.890229 -116.793442 231 8603ft 173kts
26-Jan-20 20:20 46.857657 -116.845078 231 8610ft 174kts
26-Jan-20 20:21 46.824976 -116.896761 231 8622ft 173kts
26-Jan-20 20:22 46.791815 -116.948786 231 8639ft 173kts
26-Jan-20 20:23 46.758906 -116.999975 231 8656ft 172kts
26-Jan-20 20:24 46.726127 -117.050471 231 8674ft 171kts
26-Jan-20 20:25 46.693487 -117.100537 232 8694ft 170kts
26-Jan-20 20:26 46.660975 -117.150143 232 8709ft 169kts
26-Jan-20 20:27 46.628662 -117.199465 232 8719ft 169kts
26-Jan-20 20:28 46.597419 -117.250111 235 8730ft 168kts
26-Jan-20 20:29 46.567693 -117.302413 236 8739ft 167kts
26-Jan-20 20:30 46.537982 -117.354706 236 8748ft 167kts
26-Jan-20 20:31 46.508863 -117.405701 236 8692ft 161kts
26-Jan-20 20:32 46.480262 -117.455583 236 8578ft 160kts
26-Jan-20 20:33 46.452788 -117.506111 238 8466ft 160kts
26-Jan-20 20:34 46.425607 -117.557321 238 8357ft 159kts
26-Jan-20 20:35 46.400421 -117.607192 248 8126ft 145kts
26-Jan-20 20:36 46.382422 -117.659239 248 7743ft 145kts
26-Jan-20 20:37 46.363733 -117.712250 248 7371ft 149kts
26-Jan-20 20:38 46.345862 -117.767457 248 7100ft 155kts
26-Jan-20 20:39 46.333319 -117.826876 248 6921ft 151kts
26-Jan-20 20:40 46.320807 -117.884129 248 6738ft 150kts
26-Jan-20 20:41 46.308152 -117.942208 249 6551ft 150kts
26-Jan-20 20:42 46.294787 -117.999140 241 6371ft 150kts
26-Jan-20 20:43 46.279189 -118.054392 246 6342ft 162kts
26-Jan-20 20:44 46.256198 -118.107006 226 6262ft 133kts
26-Jan-20 20:45 46.229361 -118.133527 216 5474ft 113kts
26-Jan-20 20:46 46.204645 -118.163172 216 4634ft 128kts
26-Jan-20 20:47 46.175399 -118.197978 217 4267ft 140kts
26-Jan-20 20:48 46.147680 -118.227254 210 3021ft 127kts
26-Jan-20 20:49 46.121521 -118.253563 216 2103ft 101kts
26-Jan-20 20:50 46.098541 -118.277526 211 1212ft 85kts
26-Jan-20 20:51 46.094162 -118.279744 198 1194ft 0kts
26-Jan-20 20:52 46.094162 -118.279744 198 1194ft 0kts
26-Jan-20 20:53 46.094162 -118.279744 198 1194ft 0kts

Navigation Log

Ident Type
Flight plan parsing failed, navigation log unavailable